Time;durP1;ratioP1;P1;durP2;ratioP2;P2;SDS_P1;SDS_P2;PMS_P1;PMS_P2;Temp;Humidity;BMP_temperature;BMP_pressure;BME280_temperature;BME280_humidity;BME280_pressure;Samples;Min_cycle;Max_cycle;Signal;HPM_P1;HPM_P2
2023/04/01 00:02:18;;;;;;;1.47;1.00;;;;;;;;;;5079969;28;20471;-84
2023/04/01 00:04:44;;;;;;;0.63;0.63;;;;;;;;;;5081404;28;20409;-84
2023/04/01 00:07:10;;;;;;;3.33;1.07;;;;;;;;;;5081879;28;20458;-84
2023/04/01 00:09:37;;;;;;;1.60;0.83;;;;;;;;;;5074444;28;20413;-84
2023/04/01 00:12:03;;;;;;;1.03;0.80;;;;;;;;;;5071346;28;20463;-82
2023/04/01 00:14:30;;;;;;;1.20;0.80;;;;;;;;;;5086383;28;20435;-84
2023/04/01 00:16:56;;;;;;;1.70;0.77;;;;;;;;;;5091105;28;20440;-83
2023/04/01 00:19:22;;;;;;;1.40;1.30;;;;;;;;;;5090339;28;20393;-83
2023/04/01 00:21:48;;;;;;;2.03;1.20;;;;;;;;;;5077754;28;20478;-77
2023/04/01 00:24:14;;;;;;;1.17;1.10;;;;;;;;;;5097410;28;20448;-81
2023/04/01 00:26:42;;;;;;;1.00;0.93;;;;;;;;;;5088503;28;20455;-85
2023/04/01 00:29:08;;;;;;;2.57;0.90;;;;;;;;;;5066026;28;20493;-84
2023/04/01 00:31:34;;;;;;;1.00;0.90;;;;;;;;;;5060168;28;20878;-84
2023/04/01 00:34:00;;;;;;;1.50;0.93;;;;;;;;;;5102824;28;20412;-84
2023/04/01 00:36:27;;;;;;;0.50;0.50;;;;;;;;;;5081647;28;20429;-84
2023/04/01 00:38:53;;;;;;;3.03;0.80;;;;;;;;;;5079948;28;20417;-84
2023/04/01 00:41:21;;;;;;;0.80;0.80;;;;;;;;;;5079844;28;20443;-85
2023/04/01 00:43:48;;;;;;;5.60;1.10;;;;;;;;;;5092669;28;20435;-84
2023/04/01 00:46:14;;;;;;;0.67;0.67;;;;;;;;;;5063709;28;20447;-82
2023/04/01 00:48:42;;;;;;;1.90;1.57;;;;;;;;;;5074013;28;20533;-83
2023/04/01 00:51:10;;;;;;;0.80;0.80;;;;;;;;;;5076444;28;20832;-84
2023/04/01 00:53:38;;;;;;;1.60;1.17;;;;;;;;;;5075065;28;20433;-84
2023/04/01 00:56:10;;;;;;;0.60;0.60;;;;;;;;;;5081067;28;20425;-84
2023/04/01 00:58:39;;;;;;;0.60;0.60;;;;;;;;;;5081057;28;20511;-83
2023/04/01 01:01:06;;;;;;;2.90;0.83;;;;;;;;;;5087345;28;20482;-84
2023/04/01 01:03:32;;;;;;;0.73;0.73;;;;;;;;;;5086918;28;20424;-83
2023/04/01 01:06:10;;;;;;;0.87;0.87;;;;;;;;;;5089843;28;20426;-83
2023/04/01 01:08:45;;;;;;;1.80;0.40;;;;;;;;;;5089811;28;20447;-84
2023/04/01 01:11:12;;;;;;;0.60;0.60;;;;;;;;;;5105940;28;20532;-83
2023/04/01 01:13:58;;;;;;;4.03;0.83;;;;;;;;;;5086755;28;20435;-83
2023/04/01 01:16:32;;;;;;;0.60;0.60;;;;;;;;;;5088374;28;20427;-83
2023/04/01 01:18:58;;;;;;;0.57;0.57;;;;;;;;;;5065535;28;20488;-85
2023/04/01 01:21:33;;;;;;;1.07;1.07;;;;;;;;;;5081551;28;20432;-84
2023/04/01 01:24:12;;;;;;;1.30;0.70;;;;;;;;;;5072909;28;20486;-85
2023/04/01 01:26:50;;;;;;;0.97;0.97;;;;;;;;;;5083113;28;20527;-83
2023/04/01 01:29:32;;;;;;;2.13;0.80;;;;;;;;;;5076983;28;20409;-83
2023/04/01 01:32:12;;;;;;;1.27;0.83;;;;;;;;;;5059443;28;20456;-84
2023/04/01 01:34:38;;;;;;;0.63;0.63;;;;;;;;;;5078984;28;20424;-83
2023/04/01 01:37:09;;;;;;;0.60;0.60;;;;;;;;;;5075636;28;20487;-84
2023/04/01 01:39:36;;;;;;;0.73;0.73;;;;;;;;;;5058330;28;20474;-83
2023/04/01 01:42:05;;;;;;;0.40;0.40;;;;;;;;;;5077211;28;20440;-83
2023/04/01 01:44:32;;;;;;;0.63;0.63;;;;;;;;;;5079846;28;20405;-82
2023/04/01 01:46:58;;;;;;;2.73;0.70;;;;;;;;;;5071803;28;20441;-81
2023/04/01 01:49:25;;;;;;;0.73;0.73;;;;;;;;;;5075488;28;20492;-82
2023/04/01 01:51:51;;;;;;;2.10;0.77;;;;;;;;;;5077267;28;20472;-83
2023/04/01 01:54:17;;;;;;;0.40;0.40;;;;;;;;;;5081187;28;20416;-83
2023/04/01 01:56:48;;;;;;;1.70;1.13;;;;;;;;;;5074784;28;20829;-84
2023/04/01 01:59:15;;;;;;;0.50;0.50;;;;;;;;;;5058302;28;20471;-83
2023/04/01 02:01:44;;;;;;;0.80;0.80;;;;;;;;;;5079871;28;20487;-84
2023/04/01 02:04:10;;;;;;;5.33;1.10;;;;;;;;;;5079032;28;20429;-83
2023/04/01 02:06:38;;;;;;;3.30;1.53;;;;;;;;;;5091849;28;20428;-84
2023/04/01 02:09:06;;;;;;;0.60;0.60;;;;;;;;;;5093844;28;20424;-82
2023/04/01 02:11:38;;;;;;;0.80;0.43;;;;;;;;;;5087492;28;20508;-82
2023/04/01 02:14:05;;;;;;;1.53;0.70;;;;;;;;;;5069417;28;20425;-84
2023/04/01 02:16:46;;;;;;;1.03;1.03;;;;;;;;;;5087288;28;20441;-81
2023/04/01 02:19:13;;;;;;;0.90;0.90;;;;;;;;;;5088564;28;20500;-82
2023/04/01 02:21:40;;;;;;;1.03;1.03;;;;;;;;;;5089406;28;20428;-82
2023/04/01 02:24:08;;;;;;;0.70;0.70;;;;;;;;;;5084268;28;20455;-82
2023/04/01 02:26:36;;;;;;;1.80;1.70;;;;;;;;;;5081677;28;20439;-82
2023/04/01 02:29:07;;;;;;;1.13;1.13;;;;;;;;;;5071443;28;20684;-82
2023/04/01 02:31:34;;;;;;;0.80;0.77;;;;;;;;;;5074160;28;21047;-82
2023/04/01 02:34:00;;;;;;;0.87;0.87;;;;;;;;;;5082210;28;20404;-83
2023/04/01 02:36:27;;;;;;;1.03;1.00;;;;;;;;;;5070677;28;20491;-83
2023/04/01 02:39:14;;;;;;;0.70;0.70;;;;;;;;;;5075688;28;20456;-83
2023/04/01 02:41:41;;;;;;;1.60;1.60;;;;;;;;;;5050273;28;20897;-82
2023/04/01 02:44:07;;;;;;;0.90;0.90;;;;;;;;;;5072173;28;20435;-82
2023/04/01 02:46:33;;;;;;;1.27;1.00;;;;;;;;;;5067255;28;20540;-82
2023/04/01 02:48:59;;;;;;;1.20;0.77;;;;;;;;;;5079099;28;20435;-82
2023/04/01 02:51:26;;;;;;;0.70;0.70;;;;;;;;;;5081365;28;20519;-82
2023/04/01 02:53:52;;;;;;;0.70;0.70;;;;;;;;;;5088255;28;20440;-81
2023/04/01 02:56:19;;;;;;;1.80;0.93;;;;;;;;;;5087617;28;20456;-81
2023/04/01 02:58:45;;;;;;;2.73;1.03;;;;;;;;;;5074699;28;20448;-83
2023/04/01 03:01:11;;;;;;;1.07;0.97;;;;;;;;;;5076228;28;20435;-81
2023/04/01 03:03:37;;;;;;;0.97;0.97;;;;;;;;;;5066364;28;20448;-82
2023/04/01 03:06:07;;;;;;;1.03;0.73;;;;;;;;;;5067814;28;20429;-83
2023/04/01 03:08:33;;;;;;;1.00;0.90;;;;;;;;;;5067973;28;20966;-82
2023/04/01 03:10:59;;;;;;;0.80;0.80;;;;;;;;;;5078028;28;20447;-82
2023/04/01 03:13:25;;;;;;;0.70;0.70;;;;;;;;;;5067352;28;20445;-82
2023/04/01 03:15:51;;;;;;;2.20;1.20;;;;;;;;;;5072974;28;20434;-82
2023/04/01 03:18:17;;;;;;;1.13;1.13;;;;;;;;;;5070590;28;20439;-82
2023/04/01 03:20:43;;;;;;;0.83;0.83;;;;;;;;;;5077959;28;20437;-82
2023/04/01 03:23:09;;;;;;;1.07;1.07;;;;;;;;;;5064811;28;20453;-82
2023/04/01 03:25:35;;;;;;;1.60;1.00;;;;;;;;;;5070417;28;20713;-83
2023/04/01 03:28:02;;;;;;;1.13;1.03;;;;;;;;;;5068653;28;20561;-82
2023/04/01 03:30:31;;;;;;;1.50;1.30;;;;;;;;;;5081907;28;20436;-82
2023/04/01 03:32:58;;;;;;;1.43;1.43;;;;;;;;;;5072587;28;20495;-83
2023/04/01 03:35:24;;;;;;;0.90;0.90;;;;;;;;;;5077306;28;20631;-83
2023/04/01 03:37:54;;;;;;;1.03;1.03;;;;;;;;;;5071349;28;20437;-83
2023/04/01 03:40:20;;;;;;;1.67;1.67;;;;;;;;;;5076258;28;20424;-82
2023/04/01 03:42:46;;;;;;;1.10;1.10;;;;;;;;;;5070575;28;20448;-83
2023/04/01 03:45:12;;;;;;;0.70;0.70;;;;;;;;;;5083375;28;20431;-82
2023/04/01 03:47:38;;;;;;;1.00;1.00;;;;;;;;;;5070853;28;20506;-83
2023/04/01 03:50:05;;;;;;;1.57;1.57;;;;;;;;;;5071035;28;20462;-81
2023/04/01 03:52:31;;;;;;;0.93;0.93;;;;;;;;;;5065901;28;20480;-82
2023/04/01 03:54:57;;;;;;;1.10;1.10;;;;;;;;;;5082178;28;20438;-82
2023/04/01 03:57:23;;;;;;;0.60;0.60;;;;;;;;;;5071189;28;20443;-83
2023/04/01 03:59:49;;;;;;;0.70;0.70;;;;;;;;;;5069120;28;20415;-83
2023/04/01 04:02:15;;;;;;;1.00;1.00;;;;;;;;;;5075049;28;20444;-82
2023/04/01 04:04:42;;;;;;;1.10;1.10;;;;;;;;;;5067239;28;20414;-82
2023/04/01 04:07:08;;;;;;;1.17;1.17;;;;;;;;;;5099437;28;20433;-83
2023/04/01 04:09:34;;;;;;;1.30;1.30;;;;;;;;;;5092641;28;20506;-82
2023/04/01 04:12:01;;;;;;;1.30;1.30;;;;;;;;;;5089731;28;20635;-82
2023/04/01 04:14:27;;;;;;;0.77;0.77;;;;;;;;;;5075022;28;20406;-82
2023/04/01 04:16:53;;;;;;;0.93;0.93;;;;;;;;;;5068744;28;20435;-84
2023/04/01 04:19:20;;;;;;;1.33;1.27;;;;;;;;;;5084806;28;20475;-82
2023/04/01 04:21:46;;;;;;;2.00;2.00;;;;;;;;;;5085715;28;20497;-83
2023/04/01 04:24:12;;;;;;;1.47;1.17;;;;;;;;;;5072448;28;20456;-82
2023/04/01 04:26:38;;;;;;;1.80;1.70;;;;;;;;;;5054112;28;20433;-82
2023/04/01 04:29:04;;;;;;;1.30;1.30;;;;;;;;;;5060881;28;20436;-81
2023/04/01 04:31:30;;;;;;;1.73;1.27;;;;;;;;;;5049232;28;20457;-83
2023/04/01 04:33:56;;;;;;;1.10;1.10;;;;;;;;;;5061954;28;20444;-82
2023/04/01 04:36:22;;;;;;;1.43;1.30;;;;;;;;;;5061485;28;20434;-83
2023/04/01 04:38:48;;;;;;;1.00;1.00;;;;;;;;;;5068271;28;20427;-83
2023/04/01 04:41:17;;;;;;;1.30;1.30;;;;;;;;;;5058254;28;20429;-81
2023/04/01 04:43:49;;;;;;;0.80;0.80;;;;;;;;;;5055848;28;20446;-83
2023/04/01 04:46:15;;;;;;;1.60;1.60;;;;;;;;;;5052866;28;20441;-83
2023/04/01 04:48:43;;;;;;;1.30;1.30;;;;;;;;;;5058330;28;20437;-83
2023/04/01 04:51:13;;;;;;;1.00;1.00;;;;;;;;;;5059793;28;20433;-83
2023/04/01 04:53:39;;;;;;;1.10;1.10;;;;;;;;;;5059012;28;20437;-82
2023/04/01 04:56:05;;;;;;;1.47;1.07;;;;;;;;;;5068537;28;20444;-82
2023/04/01 04:58:31;;;;;;;0.93;0.93;;;;;;;;;;5058938;28;20445;-83
2023/04/01 05:00:57;;;;;;;1.23;1.23;;;;;;;;;;5067527;28;20669;-82
2023/04/01 05:03:23;;;;;;;1.20;1.20;;;;;;;;;;5054563;28;20445;-83
2023/04/01 05:05:51;;;;;;;1.37;1.37;;;;;;;;;;5064083;28;20437;-82
2023/04/01 05:08:17;;;;;;;1.13;1.13;;;;;;;;;;5059347;28;20448;-82
2023/04/01 05:10:44;;;;;;;1.37;1.27;;;;;;;;;;5062695;28;20437;-83
2023/04/01 05:13:10;;;;;;;1.10;1.10;;;;;;;;;;5064802;28;20473;-83
2023/04/01 05:15:37;;;;;;;1.37;1.37;;;;;;;;;;5063425;28;20932;-81
2023/04/01 05:18:03;;;;;;;1.77;1.77;;;;;;;;;;5068881;28;20781;-82
2023/04/01 05:20:29;;;;;;;2.73;1.50;;;;;;;;;;5060577;28;20548;-83
2023/04/01 05:22:58;;;;;;;1.27;1.27;;;;;;;;;;5074806;28;20463;-83
2023/04/01 05:25:25;;;;;;;1.60;1.60;;;;;;;;;;5056950;28;21052;-83
2023/04/01 05:27:51;;;;;;;1.50;1.50;;;;;;;;;;5078489;28;20511;-82
2023/04/01 05:30:17;;;;;;;1.70;1.57;;;;;;;;;;5078482;28;20525;-81
2023/04/01 05:32:43;;;;;;;1.60;1.60;;;;;;;;;;5072168;28;20509;-83
2023/04/01 05:35:09;;;;;;;1.30;1.20;;;;;;;;;;5068819;28;20465;-82
2023/04/01 05:37:36;;;;;;;1.17;1.17;;;;;;;;;;5078668;28;20421;-82
2023/04/01 05:40:02;;;;;;;0.97;0.97;;;;;;;;;;5047868;28;20468;-83
2023/04/01 05:42:28;;;;;;;2.20;1.53;;;;;;;;;;5055150;28;20504;-82
2023/04/01 05:44:55;;;;;;;1.53;1.50;;;;;;;;;;5063885;28;20436;-81
2023/04/01 05:47:22;;;;;;;1.90;1.80;;;;;;;;;;5068686;28;20429;-82
2023/04/01 05:49:48;;;;;;;1.97;1.87;;;;;;;;;;5046213;28;20473;-82
2023/04/01 05:52:14;;;;;;;1.57;1.47;;;;;;;;;;5078838;28;20471;-82
2023/04/01 05:54:40;;;;;;;1.50;1.50;;;;;;;;;;5060466;28;21143;-82
2023/04/01 05:57:06;;;;;;;1.80;1.80;;;;;;;;;;5062914;28;20438;-84
2023/04/01 05:59:34;;;;;;;1.90;1.80;;;;;;;;;;5062137;28;20440;-82
2023/04/01 06:02:01;;;;;;;1.70;1.70;;;;;;;;;;5074233;28;20435;-82
2023/04/01 06:04:30;;;;;;;2.37;2.37;;;;;;;;;;5092903;28;20429;-81
2023/04/01 06:06:56;;;;;;;1.40;1.40;;;;;;;;;;5087571;28;20525;-83
2023/04/01 06:09:26;;;;;;;1.80;1.80;;;;;;;;;;5072889;28;20479;-82
2023/04/01 06:12:09;;;;;;;1.73;1.73;;;;;;;;;;5069880;28;20452;-81
2023/04/01 06:14:50;;;;;;;2.00;1.90;;;;;;;;;;5046717;28;20444;-81
2023/04/01 06:17:29;;;;;;;1.80;1.80;;;;;;;;;;5056454;28;20933;-82
2023/04/01 06:20:03;;;;;;;2.30;2.30;;;;;;;;;;5053048;28;20429;-81
2023/04/01 06:22:35;;;;;;;2.10;1.80;;;;;;;;;;5082604;28;20446;-81
2023/04/01 06:25:13;;;;;;;2.43;2.40;;;;;;;;;;5082213;28;20443;-82
2023/04/01 06:27:42;;;;;;;1.30;1.30;;;;;;;;;;5072934;28;20429;-81
2023/04/01 06:30:23;;;;;;;1.90;1.90;;;;;;;;;;5070231;28;20437;-83
2023/04/01 06:33:01;;;;;;;1.70;1.70;;;;;;;;;;5070481;28;20476;-82
2023/04/01 06:35:27;;;;;;;2.40;2.30;;;;;;;;;;5071271;28;20459;-83
2023/04/01 06:37:53;;;;;;;2.20;2.10;;;;;;;;;;5073376;28;21163;-82
2023/04/01 06:40:26;;;;;;;2.37;2.37;;;;;;;;;;5055978;28;20442;-81
2023/04/01 06:43:01;;;;;;;2.23;2.13;;;;;;;;;;5051023;28;20793;-82
2023/04/01 06:45:36;;;;;;;8.50;7.07;;;;;;;;;;5063954;28;21110;-81
2023/04/01 06:48:22;;;;;;;2.30;2.20;;;;;;;;;;5074899;28;21014;-82
2023/04/01 06:50:53;;;;;;;3.20;2.77;;;;;;;;;;5056633;28;20807;-82
2023/04/01 06:53:20;;;;;;;1.63;1.60;;;;;;;;;;5092238;28;20464;-82
2023/04/01 06:55:51;;;;;;;1.70;1.70;;;;;;;;;;5078839;28;20427;-83
2023/04/01 06:58:22;;;;;;;2.00;2.00;;;;;;;;;;5071394;28;20482;-83
2023/04/01 07:00:50;;;;;;;2.90;2.80;;;;;;;;;;5079397;28;20424;-83
2023/04/01 07:03:29;;;;;;;2.50;2.07;;;;;;;;;;5080864;28;20420;-82
2023/04/01 07:05:57;;;;;;;1.97;1.97;;;;;;;;;;5073868;28;20481;-83
2023/04/01 07:08:26;;;;;;;1.97;1.97;;;;;;;;;;5072191;28;20432;-82
2023/04/01 07:10:57;;;;;;;2.40;2.10;;;;;;;;;;5066216;28;20433;-82
2023/04/01 07:13:37;;;;;;;43.67;22.90;;;;;;;;;;5074205;28;20977;-83
2023/04/01 07:16:21;;;;;;;1.10;1.10;;;;;;;;;;5067597;28;20479;-84
2023/04/01 07:18:53;;;;;;;2.23;2.20;;;;;;;;;;5078030;28;20423;-82
2023/04/01 07:21:40;;;;;;;1.87;1.87;;;;;;;;;;5070005;28;20512;-82
2023/04/01 07:24:09;;;;;;;1.20;1.20;;;;;;;;;;5077267;28;20467;-82
2023/04/01 07:26:35;;;;;;;1.70;1.70;;;;;;;;;;5039791;28;20442;-81
2023/04/01 07:29:02;;;;;;;1.87;1.87;;;;;;;;;;5072596;28;20741;-82
2023/04/01 07:31:52;;;;;;;1.80;1.80;;;;;;;;;;5071871;28;20425;-83
2023/04/01 07:34:32;;;;;;;1.80;1.80;;;;;;;;;;5074872;28;20427;-83
2023/04/01 07:37:01;;;;;;;1.77;1.77;;;;;;;;;;5055847;28;20607;-82
2023/04/01 07:39:35;;;;;;;1.83;1.80;;;;;;;;;;5065424;28;20433;-83
2023/04/01 07:42:04;;;;;;;2.30;2.30;;;;;;;;;;5066952;28;20451;-81
2023/04/01 07:45:03;;;;;;;2.33;2.33;;;;;;;;;;5080453;28;20429;-82
2023/04/01 07:47:35;;;;;;;2.40;2.40;;;;;;;;;;5022974;28;20501;-81
2023/04/01 07:50:01;;;;;;;1.80;1.80;;;;;;;;;;5062605;28;20429;-81
2023/04/01 07:52:36;;;;;;;1.90;1.90;;;;;;;;;;5076196;28;20487;-81
2023/04/01 07:55:12;;;;;;;1.60;1.53;;;;;;;;;;5053026;28;20455;-82
2023/04/01 07:57:45;;;;;;;2.03;2.03;;;;;;;;;;5072917;28;20764;-81
2023/04/01 08:00:12;;;;;;;1.67;1.67;;;;;;;;;;5062803;28;20523;-82
2023/04/01 08:02:38;;;;;;;1.77;1.77;;;;;;;;;;5066933;28;20445;-82
2023/04/01 08:05:04;;;;;;;2.43;2.43;;;;;;;;;;5089243;28;20431;-83
2023/04/01 08:07:30;;;;;;;2.33;2.13;;;;;;;;;;5088497;28;20737;-81
2023/04/01 08:10:04;;;;;;;2.40;2.40;;;;;;;;;;5079180;28;20717;-83
2023/04/01 08:12:48;;;;;;;3.13;3.03;;;;;;;;;;5079135;28;20472;-83
2023/04/01 08:15:17;;;;;;;2.70;2.70;;;;;;;;;;5073710;28;20454;-82
2023/04/01 08:17:55;;;;;;;3.00;2.90;;;;;;;;;;5076356;28;20452;-82
2023/04/01 08:20:21;;;;;;;2.80;2.70;;;;;;;;;;5076640;28;20452;-80
2023/04/01 08:23:10;;;;;;;3.23;3.03;;;;;;;;;;5055651;28;20515;-82
2023/04/01 08:25:38;;;;;;;3.00;3.00;;;;;;;;;;5047577;28;20461;-83
2023/04/01 08:28:07;;;;;;;3.87;3.77;;;;;;;;;;5057102;28;20512;-83
2023/04/01 08:30:40;;;;;;;3.63;3.53;;;;;;;;;;5049063;28;20437;-83
2023/04/01 08:33:15;;;;;;;3.90;3.80;;;;;;;;;;5053416;28;20571;-83
2023/04/01 08:35:43;;;;;;;4.30;4.10;;;;;;;;;;5050336;28;20445;-86
2023/04/01 08:38:14;;;;;;;3.53;3.53;;;;;;;;;;5060268;28;20444;-84
2023/04/01 08:41:13;;;;;;;4.47;4.37;;;;;;;;;;5057514;28;20457;-83
2023/04/01 08:44:11;;;;;;;3.60;3.50;;;;;;;;;;5007356;28;20434;-82
2023/04/01 08:46:56;;;;;;;3.13;2.80;;;;;;;;;;5031796;28;20480;-84
2023/04/01 08:49:51;;;;;;;3.80;3.70;;;;;;;;;;5062685;28;20811;-83
2023/04/01 08:52:36;;;;;;;2.80;2.70;;;;;;;;;;4980981;28;20478;-86
2023/04/01 08:55:20;;;;;;;3.10;3.10;;;;;;;;;;5045178;28;20524;-80
2023/04/01 08:57:49;;;;;;;2.90;2.80;;;;;;;;;;5046706;28;20430;-80
2023/04/01 09:00:34;;;;;;;3.70;3.60;;;;;;;;;;5048337;28;20443;-79
2023/04/01 09:03:06;;;;;;;3.30;3.20;;;;;;;;;;5044822;28;20640;-82
2023/04/01 09:05:58;;;;;;;4.03;3.83;;;;;;;;;;5065033;28;20466;-81
2023/04/01 09:08:30;;;;;;;4.00;3.80;;;;;;;;;;5061968;28;20418;-80
2023/04/01 09:11:23;;;;;;;3.40;3.30;;;;;;;;;;5066015;28;20468;-81
2023/04/01 09:14:07;;;;;;;4.23;3.97;;;;;;;;;;5042341;28;20969;-83
2023/04/01 09:16:58;;;;;;;2.90;2.90;;;;;;;;;;5051347;28;20441;-82
2023/04/01 09:19:28;;;;;;;4.97;4.67;;;;;;;;;;5049909;28;20421;-81
2023/04/01 09:21:59;;;;;;;5.47;5.17;;;;;;;;;;5045308;28;20490;-81
2023/04/01 09:24:43;;;;;;;5.90;5.60;;;;;;;;;;5057426;28;20464;-77
2023/04/01 09:27:50;;;;;;;5.50;5.17;;;;;;;;;;5033202;28;20437;-81
2023/04/01 09:30:19;;;;;;;5.87;5.50;;;;;;;;;;4955931;28;20815;-78
2023/04/01 09:33:03;;;;;;;6.03;5.50;;;;;;;;;;4943310;28;20493;-82
2023/04/01 09:35:41;;;;;;;6.37;5.77;;;;;;;;;;5027870;28;20449;-80
2023/04/01 09:38:20;;;;;;;5.60;5.20;;;;;;;;;;5047753;28;20460;-82
2023/04/01 09:41:05;;;;;;;6.10;5.70;;;;;;;;;;5049931;28;20945;-82
2023/04/01 09:43:52;;;;;;;6.77;6.17;;;;;;;;;;5052996;28;20428;-82
2023/04/01 09:46:26;;;;;;;5.93;5.50;;;;;;;;;;5075933;28;20440;-81
2023/04/01 09:49:18;;;;;;;5.30;5.00;;;;;;;;;;5054059;28;20401;-80
2023/04/01 09:51:44;;;;;;;6.77;6.33;;;;;;;;;;5051568;28;20469;-81
2023/04/01 09:54:34;;;;;;;7.07;6.57;;;;;;;;;;5041208;28;20465;-80
2023/04/01 09:57:19;;;;;;;12.40;6.97;;;;;;;;;;5021299;28;20773;-82
2023/04/01 10:00:04;;;;;;;10.83;8.90;;;;;;;;;;5078105;28;20428;-79
2023/04/01 10:02:51;;;;;;;5.90;5.50;;;;;;;;;;5069144;28;20708;-83
2023/04/01 10:05:38;;;;;;;6.77;6.17;;;;;;;;;;5043135;28;20499;-79
2023/04/01 10:08:23;;;;;;;7.50;6.80;;;;;;;;;;5048891;28;20815;-79
2023/04/01 10:10:58;;;;;;;8.30;7.70;;;;;;;;;;5040174;28;20429;-79
2023/04/01 10:13:40;;;;;;;6.23;5.70;;;;;;;;;;5048678;28;20445;-80
2023/04/01 10:16:26;;;;;;;7.20;6.70;;;;;;;;;;5065537;28;20475;-81
2023/04/01 10:19:10;;;;;;;7.87;6.87;;;;;;;;;;5063127;28;20488;-80
2023/04/01 10:21:46;;;;;;;4.90;4.50;;;;;;;;;;5074186;28;20497;-80
2023/04/01 10:24:14;;;;;;;7.53;6.90;;;;;;;;;;5062404;28;20525;-78
2023/04/01 10:26:49;;;;;;;11.37;10.03;;;;;;;;;;5064750;28;20405;-78
2023/04/01 10:29:22;;;;;;;7.37;6.70;;;;;;;;;;5037510;28;20432;-80
2023/04/01 10:31:57;;;;;;;9.07;8.27;;;;;;;;;;5053996;28;20481;-80
2023/04/01 10:34:42;;;;;;;10.17;9.13;;;;;;;;;;5055330;28;20449;-81
2023/04/01 10:37:24;;;;;;;12.93;9.33;;;;;;;;;;5059163;28;20438;-80
2023/04/01 10:39:50;;;;;;;8.80;7.23;;;;;;;;;;5059569;28;20459;-81
2023/04/01 10:42:34;;;;;;;7.00;6.30;;;;;;;;;;5055802;28;20437;-80
2023/04/01 10:45:19;;;;;;;7.23;6.63;;;;;;;;;;5059140;28;20435;-81
2023/04/01 10:47:48;;;;;;;8.17;7.37;;;;;;;;;;5069686;28;20532;-80
2023/04/01 10:50:14;;;;;;;8.07;7.27;;;;;;;;;;5057889;28;20443;-80
2023/04/01 10:52:40;;;;;;;9.13;6.53;;;;;;;;;;5058737;28;20470;-80
2023/04/01 10:55:19;;;;;;;7.87;6.93;;;;;;;;;;5077024;28;20444;-80
2023/04/01 10:57:46;;;;;;;8.63;7.93;;;;;;;;;;5053637;28;20446;-81
2023/04/01 11:00:30;;;;;;;8.37;7.13;;;;;;;;;;5061647;28;20536;-79
2023/04/01 11:03:07;;;;;;;6.87;6.17;;;;;;;;;;5054575;28;20834;-79
2023/04/01 11:05:36;;;;;;;7.60;6.97;;;;;;;;;;5049946;28;20414;-84
2023/04/01 11:08:02;;;;;;;8.43;7.73;;;;;;;;;;5080553;28;20430;-84
2023/04/01 11:10:47;;;;;;;8.00;5.70;;;;;;;;;;5058894;28;20434;-85
2023/04/01 11:13:19;;;;;;;8.53;7.83;;;;;;;;;;5079739;28;20457;-82
2023/04/01 11:15:57;;;;;;;12.70;9.27;;;;;;;;;;5073445;28;20443;-83
2023/04/01 11:18:24;;;;;;;8.77;7.87;;;;;;;;;;5069194;28;20432;-83
2023/04/01 11:21:05;;;;;;;8.53;7.73;;;;;;;;;;5070502;28;20434;-83
2023/04/01 11:23:34;;;;;;;9.23;8.37;;;;;;;;;;5042666;28;1153576;-84
2023/04/01 11:26:19;;;;;;;9.37;7.40;;;;;;;;;;5068077;28;20202;-83
2023/04/01 11:28:45;;;;;;;4.33;4.13;;;;;;;;;;5062766;28;20769;-84
2023/04/01 11:31:30;;;;;;;8.47;7.60;;;;;;;;;;5086082;28;20447;-85
2023/04/01 11:34:03;;;;;;;6.47;5.47;;;;;;;;;;5056704;28;20438;-85
2023/04/01 11:36:38;;;;;;;6.07;5.67;;;;;;;;;;5055274;28;20409;-84
2023/04/01 11:39:23;;;;;;;9.23;8.43;;;;;;;;;;5063303;28;20815;-85
2023/04/01 11:41:55;;;;;;;5.20;4.90;;;;;;;;;;5088604;28;20413;-84
2023/04/01 11:44:29;;;;;;;5.67;5.27;;;;;;;;;;5063350;28;20429;-83
2023/04/01 11:47:01;;;;;;;7.40;6.80;;;;;;;;;;5066776;28;20429;-80
2023/04/01 11:49:48;;;;;;;11.70;9.43;;;;;;;;;;5076410;28;20464;-85
2023/04/01 11:52:23;;;;;;;11.97;9.70;;;;;;;;;;5046584;28;20445;-86
2023/04/01 12:03:02;;;;;;;8.47;7.43;;;;;;;;;;5088334;23;20482;-85
2023/04/01 12:05:28;;;;;;;10.07;9.07;;;;;;;;;;5318464;23;20503;-83
2023/04/01 12:07:54;;;;;;;8.13;7.53;;;;;;;;;;5094929;28;20409;-84
2023/04/01 12:10:21;;;;;;;8.50;7.60;;;;;;;;;;5102530;28;21017;-86
2023/04/01 12:13:06;;;;;;;6.97;6.40;;;;;;;;;;5102555;28;20476;-83
2023/04/01 12:15:55;;;;;;;7.17;6.77;;;;;;;;;;5096986;28;20458;-88
2023/04/01 12:18:22;;;;;;;5.80;5.20;;;;;;;;;;5101347;28;20423;-85
2023/04/01 12:20:48;;;;;;;5.83;5.43;;;;;;;;;;5101443;28;20456;-83
2023/04/01 12:23:35;;;;;;;6.70;6.20;;;;;;;;;;5097255;28;20428;-86
2023/04/01 12:26:07;;;;;;;5.03;4.73;;;;;;;;;;5088939;28;20437;-85
2023/04/01 12:28:42;;;;;;;5.43;5.00;;;;;;;;;;5096535;28;20423;-86
2023/04/01 12:31:19;;;;;;;7.97;7.37;;;;;;;;;;5084641;28;20570;-81
2023/04/01 12:33:48;;;;;;;7.10;6.50;;;;;;;;;;5102025;28;20471;-85
2023/04/01 12:36:38;;;;;;;8.47;7.67;;;;;;;;;;5085392;28;20440;-86
2023/04/01 12:39:12;;;;;;;8.43;7.80;;;;;;;;;;5082463;28;20432;-86
2023/04/01 12:42:00;;;;;;;8.33;7.73;;;;;;;;;;5085316;28;20431;-83
2023/04/01 12:44:42;;;;;;;6.97;6.27;;;;;;;;;;5087215;28;20416;-84
2023/04/01 12:47:23;;;;;;;7.90;7.30;;;;;;;;;;5091389;28;20490;-84
2023/04/01 12:49:52;;;;;;;9.47;7.90;;;;;;;;;;5090063;28;20472;-82
2023/04/01 12:52:28;;;;;;;14.13;12.33;;;;;;;;;;5067500;28;20437;-85
2023/04/01 12:55:04;;;;;;;10.60;9.60;;;;;;;;;;5071087;28;20508;-83
2023/04/01 12:57:39;;;;;;;10.57;8.90;;;;;;;;;;5069677;28;20428;-82
2023/04/01 13:00:14;;;;;;;9.13;8.17;;;;;;;;;;5074048;28;20430;-84
2023/04/01 13:02:46;;;;;;;10.07;7.70;;;;;;;;;;5075292;28;20436;-84
2023/04/01 13:05:21;;;;;;;14.20;8.80;;;;;;;;;;5083026;28;20486;-84
2023/04/01 13:08:08;;;;;;;9.23;8.33;;;;;;;;;;5076405;28;20443;-84
2023/04/01 13:10:43;;;;;;;9.17;8.23;;;;;;;;;;5079426;28;20446;-83
2023/04/01 13:13:39;;;;;;;9.63;8.73;;;;;;;;;;5082795;28;20487;-83
2023/04/01 13:16:26;;;;;;;11.20;9.23;;;;;;;;;;5012281;28;20474;-82
2023/04/01 13:18:58;;;;;;;6.30;5.73;;;;;;;;;;5085584;28;20425;-81
2023/04/01 13:21:57;;;;;;;10.73;8.73;;;;;;;;;;5074696;28;20522;-82
2023/04/01 13:24:23;;;;;;;9.70;8.20;;;;;;;;;;5101716;22;20475;-79
2023/04/01 13:27:03;;;;;;;10.90;9.90;;;;;;;;;;5036039;28;20450;-82
2023/04/01 13:29:33;;;;;;;8.20;7.40;;;;;;;;;;5022058;28;20447;-83
2023/04/01 13:31:59;;;;;;;9.90;9.00;;;;;;;;;;5022020;28;20565;-82
2023/04/01 13:34:47;;;;;;;8.90;8.07;;;;;;;;;;5025232;28;20444;-83
2023/04/01 13:37:13;;;;;;;9.10;8.20;;;;;;;;;;5026026;28;20920;-84
2023/04/01 13:39:42;;;;;;;9.43;8.60;;;;;;;;;;5003552;28;20439;-81
2023/04/01 13:42:27;;;;;;;8.93;8.03;;;;;;;;;;5024640;28;20446;-84
2023/04/01 13:45:02;;;;;;;9.13;8.33;;;;;;;;;;5010972;28;20846;-83
2023/04/01 13:47:47;;;;;;;8.43;7.60;;;;;;;;;;5017813;28;20553;-82
2023/04/01 13:50:32;;;;;;;8.90;7.27;;;;;;;;;;5037253;28;20482;-81
2023/04/01 13:53:17;;;;;;;10.90;8.93;;;;;;;;;;5033179;28;20601;-83
2023/04/01 13:56:02;;;;;;;8.43;7.43;;;;;;;;;;5043433;28;20499;-84
2023/04/01 13:58:29;;;;;;;7.97;7.37;;;;;;;;;;5039865;28;20465;-85
2023/04/01 14:00:58;;;;;;;6.40;5.77;;;;;;;;;;5042463;28;20458;-81
2023/04/01 14:03:41;;;;;;;7.73;7.13;;;;;;;;;;5029892;28;20538;-83
2023/04/01 14:06:13;;;;;;;14.37;7.90;;;;;;;;;;5033362;28;20446;-80
2023/04/01 14:08:58;;;;;;;9.87;8.60;;;;;;;;;;5014168;28;20487;-82
2023/04/01 14:11:33;;;;;;;7.37;6.27;;;;;;;;;;5020400;28;20526;-82
2023/04/01 14:14:05;;;;;;;10.47;9.47;;;;;;;;;;5024276;28;20498;-83
2023/04/01 14:16:34;;;;;;;8.77;8.00;;;;;;;;;;5029439;28;20422;-84
2023/04/01 14:19:03;;;;;;;8.80;6.60;;;;;;;;;;5023072;28;20441;-85
2023/04/01 14:22:02;;;;;;;7.60;7.00;;;;;;;;;;5040896;28;20403;-84
2023/04/01 14:24:53;;;;;;;5.47;4.97;;;;;;;;;;4986527;28;20506;-84
2023/04/01 14:27:25;;;;;;;7.83;7.13;;;;;;;;;;5025470;28;20428;-84
2023/04/01 14:30:10;;;;;;;6.07;5.67;;;;;;;;;;5023381;28;20436;-83
2023/04/01 14:32:57;;;;;;;7.23;6.50;;;;;;;;;;5035927;28;20478;-84
2023/04/01 14:35:28;;;;;;;7.43;6.67;;;;;;;;;;5026205;28;20441;-82
2023/04/01 14:38:10;;;;;;;7.90;7.37;;;;;;;;;;5037828;28;20454;-84
2023/04/01 14:40:53;;;;;;;8.80;8.00;;;;;;;;;;5032667;28;20486;-84
2023/04/01 14:43:34;;;;;;;11.40;8.00;;;;;;;;;;5043805;28;20421;-83
2023/04/01 14:46:06;;;;;;;10.10;8.70;;;;;;;;;;5036895;28;20465;-83
2023/04/01 14:48:37;;;;;;;8.73;7.83;;;;;;;;;;5048746;28;20446;-81
2023/04/01 14:51:09;;;;;;;8.30;7.50;;;;;;;;;;5036191;28;20473;-85
2023/04/01 14:53:42;;;;;;;8.17;7.37;;;;;;;;;;5033737;28;20478;-85
2023/04/01 14:56:08;;;;;;;9.10;7.23;;;;;;;;;;5043117;28;20650;-82
2023/04/01 14:58:40;;;;;;;7.87;7.10;;;;;;;;;;5023657;28;20443;-85
2023/04/01 15:01:06;;;;;;;8.60;6.90;;;;;;;;;;5043209;28;20434;-84
2023/04/01 15:03:33;;;;;;;9.47;8.10;;;;;;;;;;5032369;28;20428;-82
2023/04/01 15:06:18;;;;;;;8.70;7.90;;;;;;;;;;5035448;28;20497;-85
2023/04/01 15:08:47;;;;;;;8.40;7.60;;;;;;;;;;5032285;28;20963;-83
2023/04/01 15:11:31;;;;;;;9.50;7.60;;;;;;;;;;5040817;28;20407;-84
2023/04/01 15:14:15;;;;;;;10.37;8.37;;;;;;;;;;5040985;28;20577;-85
2023/04/01 15:16:54;;;;;;;9.57;8.43;;;;;;;;;;5038510;28;20482;-84
2023/04/01 15:19:20;;;;;;;8.83;7.93;;;;;;;;;;5044211;28;20979;-83
2023/04/01 15:22:05;;;;;;;10.27;8.73;;;;;;;;;;5036809;28;20422;-84
2023/04/01 15:24:51;;;;;;;8.50;7.80;;;;;;;;;;5040657;28;20466;-82
2023/04/01 15:27:25;;;;;;;7.73;7.13;;;;;;;;;;4995920;28;20476;-82